Terminal Aerodrome Forecast
Issued by NWS Northern Indiana

Home | Current Version | Previous Version | Text Only | Print | Product List | Glossary On
Versions: 1 2 3 4 5 6 7 8 9 10 11 12
000
FTUS43 KIWX 230533
TAFFWA
TAF
KFWA 230533Z 2306/2406 07008KT P6SM BKN250
     FM231800 10012KT P6SM BKN080
     FM232200 11012KT P6SM VCSH BKN035=

USA.gov is the U.S. government's official web portal to all federal, state and local government web resources and services.